sensor_id;sensor_type;location;lat;lon;timestamp;pressure;altitude;pressure_sealevel;temperature;humidity
23635;BME280;11994;51.038;16.974;2022-07-18T00:01:58;101095.48;;;14.86;57.66
23635;BME280;11994;51.038;16.974;2022-07-18T00:04:26;101097.84;;;14.80;57.65
23635;BME280;11994;51.038;16.974;2022-07-18T00:06:53;101099.73;;;14.75;57.80
23635;BME280;11994;51.038;16.974;2022-07-18T00:09:20;101093.33;;;14.68;58.02
23635;BME280;11994;51.038;16.974;2022-07-18T00:11:48;101091.19;;;14.66;58.14
23635;BME280;11994;51.038;16.974;2022-07-18T00:14:15;101092.57;;;14.63;58.28
23635;BME280;11994;51.038;16.974;2022-07-18T00:16:41;101087.92;;;14.56;58.35
23635;BME280;11994;51.038;16.974;2022-07-18T00:19:07;101084.14;;;14.49;58.46
23635;BME280;11994;51.038;16.974;2022-07-18T00:21:34;101076.00;;;14.40;58.63
23635;BME280;11994;51.038;16.974;2022-07-18T00:24:00;101076.20;;;14.31;58.70
23635;BME280;11994;51.038;16.974;2022-07-18T00:26:27;101074.69;;;14.21;58.86
23635;BME280;11994;51.038;16.974;2022-07-18T00:28:53;101074.78;;;14.17;59.01
23635;BME280;11994;51.038;16.974;2022-07-18T00:31:19;101069.97;;;14.16;59.15
23635;BME280;11994;51.038;16.974;2022-07-18T00:33:45;101076.59;;;14.15;59.13
23635;BME280;11994;51.038;16.974;2022-07-18T00:36:11;101069.23;;;14.10;59.15
23635;BME280;11994;51.038;16.974;2022-07-18T00:38:37;101069.41;;;14.02;59.25
23635;BME280;11994;51.038;16.974;2022-07-18T00:41:04;101075.21;;;13.99;59.32
23635;BME280;11994;51.038;16.974;2022-07-18T00:43:30;101076.53;;;13.99;59.46
23635;BME280;11994;51.038;16.974;2022-07-18T00:45:56;101076.59;;;13.96;59.42
23635;BME280;11994;51.038;16.974;2022-07-18T00:48:23;101068.81;;;13.90;59.44
23635;BME280;11994;51.038;16.974;2022-07-18T00:50:49;101073.39;;;13.83;59.54
23635;BME280;11994;51.038;16.974;2022-07-18T00:53:15;101070.36;;;13.81;59.77
23635;BME280;11994;51.038;16.974;2022-07-18T00:55:43;101072.98;;;13.82;59.99
23635;BME280;11994;51.038;16.974;2022-07-18T00:58:11;101071.06;;;13.87;59.92
23635;BME280;11994;51.038;16.974;2022-07-18T01:00:38;101078.64;;;13.85;59.81
23635;BME280;11994;51.038;16.974;2022-07-18T01:03:24;101072.26;;;13.74;59.78
23635;BME280;11994;51.038;16.974;2022-07-18T01:05:50;101064.98;;;13.66;60.12
23635;BME280;11994;51.038;16.974;2022-07-18T01:08:16;101071.16;;;13.65;60.40
23635;BME280;11994;51.038;16.974;2022-07-18T01:10:42;101070.30;;;13.63;60.58
23635;BME280;11994;51.038;16.974;2022-07-18T01:13:08;101067.64;;;13.65;60.79
23635;BME280;11994;51.038;16.974;2022-07-18T01:15:35;101071.57;;;13.66;60.75
23635;BME280;11994;51.038;16.974;2022-07-18T01:18:02;101069.84;;;13.65;60.77
23635;BME280;11994;51.038;16.974;2022-07-18T01:20:29;101065.50;;;13.63;60.87
23635;BME280;11994;51.038;16.974;2022-07-18T01:22:56;101070.39;;;13.60;60.90
23635;BME280;11994;51.038;16.974;2022-07-18T01:25:23;101072.66;;;13.56;60.98
23635;BME280;11994;51.038;16.974;2022-07-18T01:27:49;101071.89;;;13.51;61.07
23635;BME280;11994;51.038;16.974;2022-07-18T01:30:15;101083.37;;;13.49;61.20
23635;BME280;11994;51.038;16.974;2022-07-18T01:32:42;101080.42;;;13.43;61.23
23635;BME280;11994;51.038;16.974;2022-07-18T01:35:09;101077.45;;;13.38;61.36
23635;BME280;11994;51.038;16.974;2022-07-18T01:37:36;101078.87;;;13.33;61.48
23635;BME280;11994;51.038;16.974;2022-07-18T01:40:08;101075.88;;;13.29;61.58
23635;BME280;11994;51.038;16.974;2022-07-18T01:42:35;101074.66;;;13.25;61.78
23635;BME280;11994;51.038;16.974;2022-07-18T01:45:01;101080.44;;;13.21;61.91
23635;BME280;11994;51.038;16.974;2022-07-18T01:47:27;101079.61;;;13.19;61.91
23635;BME280;11994;51.038;16.974;2022-07-18T01:49:53;101078.34;;;13.16;61.98
23635;BME280;11994;51.038;16.974;2022-07-18T01:52:19;101076.24;;;13.11;61.96
23635;BME280;11994;51.038;16.974;2022-07-18T01:54:45;101072.91;;;13.03;61.92
23635;BME280;11994;51.038;16.974;2022-07-18T01:57:10;101082.25;;;12.94;62.14
23635;BME280;11994;51.038;16.974;2022-07-18T01:59:37;101081.44;;;12.91;62.31
23635;BME280;11994;51.038;16.974;2022-07-18T02:02:04;101082.78;;;12.89;62.50
23635;BME280;11994;51.038;16.974;2022-07-18T02:04:30;101089.38;;;12.88;62.72
23635;BME280;11994;51.038;16.974;2022-07-18T02:07:16;101082.44;;;12.85;62.68
23635;BME280;11994;51.038;16.974;2022-07-18T02:09:42;101087.86;;;12.76;62.77
23635;BME280;11994;51.038;16.974;2022-07-18T02:12:08;101086.70;;;12.67;62.96
23635;BME280;11994;51.038;16.974;2022-07-18T02:14:33;101088.12;;;12.61;63.18
23635;BME280;11994;51.038;16.974;2022-07-18T02:16:59;101089.52;;;12.57;63.34
23635;BME280;11994;51.038;16.974;2022-07-18T02:19:25;101091.27;;;12.56;63.60
23635;BME280;11994;51.038;16.974;2022-07-18T02:21:51;101088.59;;;12.61;63.71
23635;BME280;11994;51.038;16.974;2022-07-18T02:24:17;101095.98;;;12.64;63.74
23635;BME280;11994;51.038;16.974;2022-07-18T02:26:43;101099.03;;;12.65;63.80
23635;BME280;11994;51.038;16.974;2022-07-18T02:29:09;101097.78;;;12.62;63.85
23635;BME280;11994;51.038;16.974;2022-07-18T02:31:34;101096.47;;;12.62;64.05
23635;BME280;11994;51.038;16.974;2022-07-18T02:34:00;101094.27;;;12.62;64.08
23635;BME280;11994;51.038;16.974;2022-07-18T02:36:26;101096.92;;;12.60;64.19
23635;BME280;11994;51.038;16.974;2022-07-18T02:38:52;101097.73;;;12.64;64.36
23635;BME280;11994;51.038;16.974;2022-07-18T02:41:18;101088.98;;;12.63;64.31
23635;BME280;11994;51.038;16.974;2022-07-18T02:43:44;101087.25;;;12.62;64.25
23635;BME280;11994;51.038;16.974;2022-07-18T02:46:10;101089.94;;;12.58;64.31
23635;BME280;11994;51.038;16.974;2022-07-18T02:48:36;101085.14;;;12.57;64.36
23635;BME280;11994;51.038;16.974;2022-07-18T02:51:01;101083.03;;;12.52;64.38
23635;BME280;11994;51.038;16.974;2022-07-18T02:53:27;101080.44;;;12.49;64.42
23635;BME280;11994;51.038;16.974;2022-07-18T02:55:53;101080.52;;;12.45;64.48
23635;BME280;11994;51.038;16.974;2022-07-18T02:58:19;101082.73;;;12.44;64.61
23635;BME280;11994;51.038;16.974;2022-07-18T03:00:45;101085.48;;;12.38;64.73
23635;BME280;11994;51.038;16.974;2022-07-18T03:03:11;101088.54;;;12.37;64.87
23635;BME280;11994;51.038;16.974;2022-07-18T03:05:37;101082.95;;;12.32;64.91
23635;BME280;11994;51.038;16.974;2022-07-18T03:08:03;101086.91;;;12.30;65.08
23635;BME280;11994;51.038;16.974;2022-07-18T03:10:29;101083.39;;;12.30;65.23
23635;BME280;11994;51.038;16.974;2022-07-18T03:12:55;101084.68;;;12.33;65.32
23635;BME280;11994;51.038;16.974;2022-07-18T03:15:21;101082.89;;;12.33;65.39
23635;BME280;11994;51.038;16.974;2022-07-18T03:17:47;101080.75;;;12.31;65.36
23635;BME280;11994;51.038;16.974;2022-07-18T03:20:13;101082.96;;;12.30;65.50
23635;BME280;11994;51.038;16.974;2022-07-18T03:22:39;101084.58;;;12.39;65.85
23635;BME280;11994;51.038;16.974;2022-07-18T03:25:05;101085.72;;;12.48;65.70
23635;BME280;11994;51.038;16.974;2022-07-18T03:27:31;101088.75;;;12.50;65.67
23635;BME280;11994;51.038;16.974;2022-07-18T03:29:57;101081.31;;;12.50;65.66
23635;BME280;11994;51.038;16.974;2022-07-18T03:32:23;101086.58;;;12.50;65.67
23635;BME280;11994;51.038;16.974;2022-07-18T03:34:49;101082.67;;;12.47;65.67
23635;BME280;11994;51.038;16.974;2022-07-18T03:37:15;101091.45;;;12.47;65.80
23635;BME280;11994;51.038;16.974;2022-07-18T03:39:41;101087.44;;;12.50;65.95
23635;BME280;11994;51.038;16.974;2022-07-18T03:42:07;101096.64;;;12.50;65.78
23635;BME280;11994;51.038;16.974;2022-07-18T03:44:33;101089.25;;;12.47;65.90
23635;BME280;11994;51.038;16.974;2022-07-18T03:46:58;101091.83;;;12.51;66.13
23635;BME280;11994;51.038;16.974;2022-07-18T03:49:24;101094.77;;;12.58;66.22
23635;BME280;11994;51.038;16.974;2022-07-18T03:51:50;101100.83;;;12.63;66.22
23635;BME280;11994;51.038;16.974;2022-07-18T03:54:16;101098.55;;;12.67;66.31
23635;BME280;11994;51.038;16.974;2022-07-18T03:56:43;101100.20;;;12.74;66.35
23635;BME280;11994;51.038;16.974;2022-07-18T03:59:09;101098.79;;;12.79;66.22
23635;BME280;11994;51.038;16.974;2022-07-18T04:01:35;101097.87;;;12.81;66.16
23635;BME280;11994;51.038;16.974;2022-07-18T04:04:01;101102.64;;;12.83;66.19
23635;BME280;11994;51.038;16.974;2022-07-18T04:06:27;101107.41;;;12.87;66.33
23635;BME280;11994;51.038;16.974;2022-07-18T04:08:53;101107.74;;;12.94;66.35
23635;BME280;11994;51.038;16.974;2022-07-18T04:11:19;101109.83;;;13.00;66.27
23635;BME280;11994;51.038;16.974;2022-07-18T04:13:47;101110.12;;;13.07;66.28
23635;BME280;11994;51.038;16.974;2022-07-18T04:16:13;101102.20;;;13.09;66.37
23635;BME280;11994;51.038;16.974;2022-07-18T04:18:38;101099.05;;;13.12;66.29
23635;BME280;11994;51.038;16.974;2022-07-18T04:21:04;101097.28;;;13.14;66.23
23635;BME280;11994;51.038;16.974;2022-07-18T04:23:31;101095.52;;;13.13;66.16
23635;BME280;11994;51.038;16.974;2022-07-18T04:25:56;101092.47;;;13.12;66.05
23635;BME280;11994;51.038;16.974;2022-07-18T04:28:23;101094.69;;;13.11;66.10
23635;BME280;11994;51.038;16.974;2022-07-18T04:30:50;101091.62;;;13.12;66.22
23635;BME280;11994;51.038;16.974;2022-07-18T04:33:16;101084.83;;;13.21;66.48
23635;BME280;11994;51.038;16.974;2022-07-18T04:35:42;101086.41;;;13.29;66.33
23635;BME280;11994;51.038;16.974;2022-07-18T04:38:09;101081.50;;;13.33;66.35
23635;BME280;11994;51.038;16.974;2022-07-18T04:40:37;101077.92;;;13.37;66.37
23635;BME280;11994;51.038;16.974;2022-07-18T04:43:03;101079.52;;;13.44;66.46
23635;BME280;11994;51.038;16.974;2022-07-18T04:45:29;101079.39;;;13.50;66.63
23635;BME280;11994;51.038;16.974;2022-07-18T04:47:56;101083.98;;;13.61;66.67
23635;BME280;11994;51.038;16.974;2022-07-18T04:50:23;101083.33;;;13.71;66.74
23635;BME280;11994;51.038;16.974;2022-07-18T04:52:50;101084.92;;;13.78;66.76
23635;BME280;11994;51.038;16.974;2022-07-18T04:55:18;101084.34;;;13.84;66.78
23635;BME280;11994;51.038;16.974;2022-07-18T04:57:48;101081.41;;;13.98;66.88
23635;BME280;11994;51.038;16.974;2022-07-18T05:00:20;101096.92;;;14.11;66.82
23635;BME280;11994;51.038;16.974;2022-07-18T05:02:50;101085.69;;;14.22;66.57
23635;BME280;11994;51.038;16.974;2022-07-18T05:05:18;101085.36;;;14.36;66.60
23635;BME280;11994;51.038;16.974;2022-07-18T05:07:45;101079.02;;;14.43;66.35
23635;BME280;11994;51.038;16.974;2022-07-18T05:10:14;101077.98;;;14.48;66.38
23635;BME280;11994;51.038;16.974;2022-07-18T05:12:42;101083.98;;;14.55;66.41
23635;BME280;11994;51.038;16.974;2022-07-18T05:15:13;101086.38;;;14.64;66.46
23635;BME280;11994;51.038;16.974;2022-07-18T05:17:40;101081.91;;;14.67;66.37
23635;BME280;11994;51.038;16.974;2022-07-18T05:20:09;101083.10;;;14.72;66.50
23635;BME280;11994;51.038;16.974;2022-07-18T05:22:37;101080.67;;;14.80;66.66
23635;BME280;11994;51.038;16.974;2022-07-18T05:25:04;101080.84;;;14.90;66.75
23635;BME280;11994;51.038;16.974;2022-07-18T05:27:32;101092.81;;;15.03;66.77
23635;BME280;11994;51.038;16.974;2022-07-18T05:29:58;101084.95;;;15.16;66.84
23635;BME280;11994;51.038;16.974;2022-07-18T05:32:28;101084.46;;;15.34;66.90
23635;BME280;11994;51.038;16.974;2022-07-18T05:34:54;101084.91;;;15.50;66.61
23635;BME280;11994;51.038;16.974;2022-07-18T05:37:20;101089.36;;;15.62;66.16
23635;BME280;11994;51.038;16.974;2022-07-18T05:39:47;101085.09;;;15.73;66.00
23635;BME280;11994;51.038;16.974;2022-07-18T05:42:13;101081.67;;;15.84;65.79
23635;BME280;11994;51.038;16.974;2022-07-18T05:44:39;101080.01;;;15.94;65.73
23635;BME280;11994;51.038;16.974;2022-07-18T05:47:05;101083.74;;;16.02;65.19
23635;BME280;11994;51.038;16.974;2022-07-18T05:49:31;101089.28;;;16.07;65.01
23635;BME280;11994;51.038;16.974;2022-07-18T05:51:57;101086.84;;;16.14;64.80
23635;BME280;11994;51.038;16.974;2022-07-18T05:54:23;101081.91;;;16.17;64.40
23635;BME280;11994;51.038;16.974;2022-07-18T05:56:50;101082.63;;;16.22;64.17
23635;BME280;11994;51.038;16.974;2022-07-18T05:59:18;101078.46;;;16.28;64.09
23635;BME280;11994;51.038;16.974;2022-07-18T06:01:45;101073.37;;;16.35;64.30
23635;BME280;11994;51.038;16.974;2022-07-18T06:04:11;101079.33;;;16.43;64.51
23635;BME280;11994;51.038;16.974;2022-07-18T06:06:38;101078.56;;;16.52;64.58
23635;BME280;11994;51.038;16.974;2022-07-18T06:09:05;101078.67;;;16.62;64.20
23635;BME280;11994;51.038;16.974;2022-07-18T06:11:31;101085.89;;;16.70;63.85
23635;BME280;11994;51.038;16.974;2022-07-18T06:13:58;101085.98;;;16.80;63.81
23635;BME280;11994;51.038;16.974;2022-07-18T06:16:24;101080.34;;;17.02;63.81
23635;BME280;11994;51.038;16.974;2022-07-18T06:18:50;101073.80;;;17.24;63.34
23635;BME280;11994;51.038;16.974;2022-07-18T06:21:16;101081.44;;;17.33;62.54
23635;BME280;11994;51.038;16.974;2022-07-18T06:23:42;101089.16;;;17.40;62.36
23635;BME280;11994;51.038;16.974;2022-07-18T06:26:07;101084.98;;;17.56;62.46
23635;BME280;11994;51.038;16.974;2022-07-18T06:28:33;101074.14;;;17.74;61.96
23635;BME280;11994;51.038;16.974;2022-07-18T06:31:00;101074.93;;;17.87;61.91
23635;BME280;11994;51.038;16.974;2022-07-18T06:33:27;101076.22;;;17.99;61.30
23635;BME280;11994;51.038;16.974;2022-07-18T06:35:52;101074.35;;;18.12;61.04
23635;BME280;11994;51.038;16.974;2022-07-18T06:38:19;101075.47;;;18.28;60.66
23635;BME280;11994;51.038;16.974;2022-07-18T06:40:45;101073.20;;;18.51;60.42
23635;BME280;11994;51.038;16.974;2022-07-18T06:43:10;101071.47;;;18.71;60.01
23635;BME280;11994;51.038;16.974;2022-07-18T06:45:37;101064.75;;;18.93;59.18
23635;BME280;11994;51.038;16.974;2022-07-18T06:48:03;101070.32;;;19.17;58.92
23635;BME280;11994;51.038;16.974;2022-07-18T06:50:29;101066.69;;;19.29;58.50
23635;BME280;11994;51.038;16.974;2022-07-18T06:52:55;101063.97;;;19.49;58.01
23635;BME280;11994;51.038;16.974;2022-07-18T06:55:21;101061.65;;;19.70;57.47
23635;BME280;11994;51.038;16.974;2022-07-18T06:57:47;101064.22;;;19.90;56.47
23635;BME280;11994;51.038;16.974;2022-07-18T07:00:14;101057.00;;;20.02;55.44
23635;BME280;11994;51.038;16.974;2022-07-18T07:02:46;101066.23;;;20.22;55.43
23635;BME280;11994;51.038;16.974;2022-07-18T07:05:10;101059.91;;;20.33;55.65
23635;BME280;11994;51.038;16.974;2022-07-18T07:07:36;101062.35;;;20.46;55.19
23635;BME280;11994;51.038;16.974;2022-07-18T07:10:03;101060.33;;;20.60;54.91
23635;BME280;11994;51.038;16.974;2022-07-18T07:12:30;101060.27;;;20.61;54.23
23635;BME280;11994;51.038;16.974;2022-07-18T07:14:56;101057.21;;;20.69;53.70
23635;BME280;11994;51.038;16.974;2022-07-18T07:17:22;101050.30;;;20.82;53.25
23635;BME280;11994;51.038;16.974;2022-07-18T07:19:47;101051.72;;;20.97;52.91
23635;BME280;11994;51.038;16.974;2022-07-18T07:22:13;101056.09;;;21.15;52.00
23635;BME280;11994;51.038;16.974;2022-07-18T07:24:39;101046.27;;;21.24;51.06
23635;BME280;11994;51.038;16.974;2022-07-18T07:27:05;101040.65;;;21.37;51.01
23635;BME280;11994;51.038;16.974;2022-07-18T07:29:32;101039.55;;;21.41;50.27
23635;BME280;11994;51.038;16.974;2022-07-18T07:31:58;101037.49;;;21.46;50.17
23635;BME280;11994;51.038;16.974;2022-07-18T07:34:24;101035.85;;;21.44;50.44
23635;BME280;11994;51.038;16.974;2022-07-18T07:36:50;101036.36;;;21.59;49.91
23635;BME280;11994;51.038;16.974;2022-07-18T07:39:16;101036.86;;;21.65;49.80
23635;BME280;11994;51.038;16.974;2022-07-18T07:41:42;101032.39;;;21.66;49.92
23635;BME280;11994;51.038;16.974;2022-07-18T07:44:07;101027.59;;;21.64;49.51
23635;BME280;11994;51.038;16.974;2022-07-18T07:46:33;101027.59;;;21.64;49.31
23635;BME280;11994;51.038;16.974;2022-07-18T07:48:59;101033.34;;;21.73;48.76
23635;BME280;11994;51.038;16.974;2022-07-18T07:51:25;101030.23;;;21.96;47.72
23635;BME280;11994;51.038;16.974;2022-07-18T07:53:53;101013.59;;;21.91;47.29
23635;BME280;11994;51.038;16.974;2022-07-18T07:56:18;101013.59;;;21.91;47.29
23635;BME280;11994;51.038;16.974;2022-07-18T07:58:45;101032.37;;;22.05;47.07
23635;BME280;11994;51.038;16.974;2022-07-18T08:01:11;101025.75;;;22.12;47.03
23635;BME280;11994;51.038;16.974;2022-07-18T08:03:39;101029.97;;;22.23;46.84
23635;BME280;11994;51.038;16.974;2022-07-18T08:06:04;101032.27;;;22.22;46.51
23635;BME280;11994;51.038;16.974;2022-07-18T08:08:30;101030.55;;;22.21;46.30
23635;BME280;11994;51.038;16.974;2022-07-18T08:10:56;101032.42;;;22.35;46.21
23635;BME280;11994;51.038;16.974;2022-07-18T08:13:22;101030.80;;;22.55;45.49
23635;BME280;11994;51.038;16.974;2022-07-18T08:15:48;101027.86;;;22.52;44.98
23635;BME280;11994;51.038;16.974;2022-07-18T08:18:14;101022.53;;;22.66;45.46
23635;BME280;11994;51.038;16.974;2022-07-18T08:20:40;101021.33;;;22.79;45.10
23635;BME280;11994;51.038;16.974;2022-07-18T08:23:08;101022.67;;;22.86;44.98
23635;BME280;11994;51.038;16.974;2022-07-18T08:25:38;101020.41;;;23.01;43.98
23635;BME280;11994;51.038;16.974;2022-07-18T08:28:06;101017.64;;;23.16;43.43
23635;BME280;11994;51.038;16.974;2022-07-18T08:30:34;101019.77;;;23.25;42.83
23635;BME280;11994;51.038;16.974;2022-07-18T08:33:00;101024.09;;;23.42;41.98
23635;BME280;11994;51.038;16.974;2022-07-18T08:35:27;101026.30;;;23.49;42.40
23635;BME280;11994;51.038;16.974;2022-07-18T08:37:54;101018.80;;;23.47;42.06
23635;BME280;11994;51.038;16.974;2022-07-18T08:40:20;101018.89;;;23.46;41.95
23635;BME280;11994;51.038;16.974;2022-07-18T08:42:49;101023.87;;;23.45;41.84
23635;BME280;11994;51.038;16.974;2022-07-18T08:45:22;101020.45;;;23.43;41.32
23635;BME280;11994;51.038;16.974;2022-07-18T08:47:50;101019.20;;;23.34;41.00
23635;BME280;11994;51.038;16.974;2022-07-18T08:50:18;101022.84;;;23.33;41.06
23635;BME280;11994;51.038;16.974;2022-07-18T08:52:44;101016.99;;;23.34;41.28
23635;BME280;11994;51.038;16.974;2022-07-18T08:55:11;101017.47;;;23.47;41.28
23635;BME280;11994;51.038;16.974;2022-07-18T08:57:39;101015.65;;;23.55;41.13
23635;BME280;11994;51.038;16.974;2022-07-18T09:00:08;101016.79;;;23.65;40.90
23635;BME280;11994;51.038;16.974;2022-07-18T09:02:35;101022.44;;;23.67;40.59
23635;BME280;11994;51.038;16.974;2022-07-18T09:05:03;101019.55;;;23.70;40.51
23635;BME280;11994;51.038;16.974;2022-07-18T09:07:32;101018.88;;;23.67;40.00
23635;BME280;11994;51.038;16.974;2022-07-18T09:10:02;101013.33;;;23.63;40.26
23635;BME280;11994;51.038;16.974;2022-07-18T09:12:30;101016.86;;;23.70;39.55
23635;BME280;11994;51.038;16.974;2022-07-18T09:14:57;101012.47;;;23.69;39.45
23635;BME280;11994;51.038;16.974;2022-07-18T09:17:34;101016.39;;;23.71;39.52
23635;BME280;11994;51.038;16.974;2022-07-18T09:20:14;101015.42;;;23.86;39.39
23635;BME280;11994;51.038;16.974;2022-07-18T09:22:43;101016.14;;;24.02;39.46
23635;BME280;11994;51.038;16.974;2022-07-18T09:25:19;101017.48;;;24.28;39.62
23635;BME280;11994;51.038;16.974;2022-07-18T09:27:45;101019.38;;;24.40;39.19
23635;BME280;11994;51.038;16.974;2022-07-18T09:30:21;101018.59;;;24.38;39.09
23635;BME280;11994;51.038;16.974;2022-07-18T09:38:05;101008.09;;;24.28;38.65
23635;BME280;11994;51.038;16.974;2022-07-18T09:43:08;101004.61;;;24.14;38.42
23635;BME280;11994;51.038;16.974;2022-07-18T09:45:42;101003.27;;;24.14;38.25
23635;BME280;11994;51.038;16.974;2022-07-18T09:48:18;101000.45;;;24.22;38.08
23635;BME280;11994;51.038;16.974;2022-07-18T09:53:23;100990.78;;;24.46;37.56
23635;BME280;11994;51.038;16.974;2022-07-18T09:56:11;100983.64;;;24.59;37.08
23635;BME280;11994;51.038;16.974;2022-07-18T09:58:50;100989.33;;;24.67;37.25
23635;BME280;11994;51.038;16.974;2022-07-18T10:01:17;100995.24;;;24.72;37.63
23635;BME280;11994;51.038;16.974;2022-07-18T10:03:43;100984.45;;;24.67;37.08
23635;BME280;11994;51.038;16.974;2022-07-18T10:06:10;100984.28;;;24.63;37.40
23635;BME280;11994;51.038;16.974;2022-07-18T10:08:37;100984.92;;;24.66;37.33
23635;BME280;11994;51.038;16.974;2022-07-18T10:11:05;100991.91;;;24.69;37.26
23635;BME280;11994;51.038;16.974;2022-07-18T10:13:33;100984.88;;;24.73;36.90
23635;BME280;11994;51.038;16.974;2022-07-18T10:16:02;100987.27;;;24.78;37.02
23635;BME280;11994;51.038;16.974;2022-07-18T10:18:30;100983.38;;;24.82;36.69
23635;BME280;11994;51.038;16.974;2022-07-18T10:21:07;100981.47;;;24.84;36.89
23635;BME280;11994;51.038;16.974;2022-07-18T10:23:40;100975.59;;;24.84;36.70
23635;BME280;11994;51.038;16.974;2022-07-18T10:26:26;100981.23;;;24.87;36.77
23635;BME280;11994;51.038;16.974;2022-07-18T10:31:31;100967.58;;;25.02;36.12
23635;BME280;11994;51.038;16.974;2022-07-18T10:34:09;100959.75;;;24.99;36.15
23635;BME280;11994;51.038;16.974;2022-07-18T10:39:36;100962.44;;;25.12;36.41
23635;BME280;11994;51.038;16.974;2022-07-18T10:42:13;100960.08;;;25.32;36.00
23635;BME280;11994;51.038;16.974;2022-07-18T10:44:40;100968.07;;;25.39;35.70
23635;BME280;11994;51.038;16.974;2022-07-18T10:47:08;100965.05;;;25.44;35.85
23635;BME280;11994;51.038;16.974;2022-07-18T11:00:26;100955.95;;;25.52;35.33
23635;BME280;11994;51.038;16.974;2022-07-18T11:03:08;100956.05;;;25.68;35.53
23635;BME280;11994;51.038;16.974;2022-07-18T11:05:40;100947.84;;;25.82;35.70
23635;BME280;11994;51.038;16.974;2022-07-18T11:21:25;100939.36;;;25.94;35.92
23635;BME280;11994;51.038;16.974;2022-07-18T11:26:33;100918.51;;;26.08;35.56
23635;BME280;11994;51.038;16.974;2022-07-18T11:31:50;100909.13;;;26.19;35.81
23635;BME280;11994;51.038;16.974;2022-07-18T11:34:14;100908.08;;;26.38;36.44
23635;BME280;11994;51.038;16.974;2022-07-18T11:36:42;100900.65;;;26.47;35.70
23635;BME280;11994;51.038;16.974;2022-07-18T11:39:10;100903.56;;;26.44;35.84
23635;BME280;11994;51.038;16.974;2022-07-18T11:41:37;100900.20;;;26.59;35.87
23635;BME280;11994;51.038;16.974;2022-07-18T11:44:15;100898.63;;;26.62;35.72
23635;BME280;11994;51.038;16.974;2022-07-18T11:46:43;100899.11;;;26.61;35.56
23635;BME280;11994;51.038;16.974;2022-07-18T11:49:09;100900.59;;;26.65;35.41
23635;BME280;11994;51.038;16.974;2022-07-18T11:51:44;100894.22;;;26.66;35.40
23635;BME280;11994;51.038;16.974;2022-07-18T11:54:09;100897.05;;;26.70;35.56
23635;BME280;11994;51.038;16.974;2022-07-18T11:56:51;100896.34;;;26.90;35.99
23635;BME280;11994;51.038;16.974;2022-07-18T11:59:18;100891.05;;;26.94;35.69
23635;BME280;11994;51.038;16.974;2022-07-18T12:01:45;100891.81;;;26.96;35.63
23635;BME280;11994;51.038;16.974;2022-07-18T12:04:21;100888.97;;;26.98;35.11
23635;BME280;11994;51.038;16.974;2022-07-18T12:07:14;100883.83;;;27.00;35.94
23635;BME280;11994;51.038;16.974;2022-07-18T12:09:43;100880.39;;;27.04;35.13
23635;BME280;11994;51.038;16.974;2022-07-18T12:12:11;100882.86;;;26.96;34.58
23635;BME280;11994;51.038;16.974;2022-07-18T12:14:38;100876.73;;;26.88;34.50
23635;BME280;11994;51.038;16.974;2022-07-18T12:17:06;100867.67;;;26.84;34.66
23635;BME280;11994;51.038;16.974;2022-07-18T12:19:41;100870.12;;;26.81;34.37
23635;BME280;11994;51.038;16.974;2022-07-18T12:22:07;100868.16;;;26.78;34.59
23635;BME280;11994;51.038;16.974;2022-07-18T12:24:51;100876.84;;;26.87;34.72
23635;BME280;11994;51.038;16.974;2022-07-18T12:27:34;100868.03;;;26.96;34.69
23635;BME280;11994;51.038;16.974;2022-07-18T12:30:06;100861.89;;;27.10;34.52
23635;BME280;11994;51.038;16.974;2022-07-18T12:32:48;100862.16;;;27.18;33.96
23635;BME280;11994;51.038;16.974;2022-07-18T12:35:31;100854.77;;;27.15;33.84
23635;BME280;11994;51.038;16.974;2022-07-18T12:38:04;100848.19;;;27.13;34.15
23635;BME280;11994;51.038;16.974;2022-07-18T12:40:52;100854.81;;;27.20;34.52
23635;BME280;11994;51.038;16.974;2022-07-18T12:43:37;100849.28;;;27.27;34.35
23635;BME280;11994;51.038;16.974;2022-07-18T12:46:09;100852.20;;;27.35;34.22
23635;BME280;11994;51.038;16.974;2022-07-18T12:48:37;100852.56;;;27.47;33.74
23635;BME280;11994;51.038;16.974;2022-07-18T12:51:05;100843.24;;;27.46;33.55
23635;BME280;11994;51.038;16.974;2022-07-18T12:53:34;100848.13;;;27.52;33.83
23635;BME280;11994;51.038;16.974;2022-07-18T12:56:03;100842.61;;;27.53;33.47
23635;BME280;11994;51.038;16.974;2022-07-18T12:58:29;100834.75;;;27.56;33.52
23635;BME280;11994;51.038;16.974;2022-07-18T13:00:55;100836.19;;;27.60;33.67
23635;BME280;11994;51.038;16.974;2022-07-18T13:03:22;100834.80;;;27.71;33.70
23635;BME280;11994;51.038;16.974;2022-07-18T13:05:48;100833.08;;;27.81;33.08
23635;BME280;11994;51.038;16.974;2022-07-18T13:08:14;100829.41;;;27.76;33.39
23635;BME280;11994;51.038;16.974;2022-07-18T13:10:41;100823.61;;;27.75;33.64
23635;BME280;11994;51.038;16.974;2022-07-18T13:13:08;100820.46;;;27.81;33.45
23635;BME280;11994;51.038;16.974;2022-07-18T13:15:35;100833.39;;;27.93;33.28
23635;BME280;11994;51.038;16.974;2022-07-18T13:18:02;100827.59;;;27.97;32.93
23635;BME280;11994;51.038;16.974;2022-07-18T13:20:29;100819.66;;;27.90;32.67
23635;BME280;11994;51.038;16.974;2022-07-18T13:22:56;100822.88;;;27.90;32.59
23635;BME280;11994;51.038;16.974;2022-07-18T13:25:22;100828.47;;;27.92;32.92
23635;BME280;11994;51.038;16.974;2022-07-18T13:27:48;100822.70;;;27.97;32.73
23635;BME280;11994;51.038;16.974;2022-07-18T13:30:15;100818.78;;;27.95;32.70